Time;durP1;ratioP1;P1;durP2;ratioP2;P2;SDS_P1;SDS_P2;PMS_P1;PMS_P2;Temp;Humidity;BMP_temperature;BMP_pressure;BME280_temperature;BME280_humidity;BME280_pressure;Samples;Min_cycle;Max_cycle;Signal;HPM_P1;HPM_P2
2022/06/18 00:01:33;;;;;;;;;;;;;;;;;;5085173;28;19928;-76
2022/06/18 00:03:59;;;;;;;;;;;;;;;;;;5066978;28;19980;-76
2022/06/18 00:06:24;;;;;;;;;;;;;;;;;;5049218;28;19974;-77
2022/06/18 00:08:51;;;;;;;;;;;;;;;;;;5068946;28;19931;-76
2022/06/18 00:14:02;;;;;;;;;;;;;;;;;;5075238;28;20264;-76
2022/06/18 00:16:31;;;;;;;;;;;;;;;;;;5065230;28;19934;-76
2022/06/18 00:18:57;;;;;;;;;;;;;;;;;;5069656;28;19948;-80
2022/06/18 00:21:23;;;;;;;;;;;;;;;;;;5062790;28;19928;-77
2022/06/18 00:23:49;;;;;;;;;;;;;;;;;;5066802;28;19928;-79
2022/06/18 00:26:15;;;;;;;;;;;;;;;;;;5063710;28;20007;-76
2022/06/18 00:28:41;;;;;;;;;;;;;;;;;;5067181;28;19928;-76
2022/06/18 00:31:07;;;;;;;;;;;;;;;;;;5066087;28;19951;-76
2022/06/18 00:33:36;;;;;;;;;;;;;;;;;;5085250;28;20330;-79
2022/06/18 00:36:02;;;;;;;;;;;;;;;;;;5044910;28;19939;-75
2022/06/18 00:38:28;;;;;;;;;;;;;;;;;;5063898;28;19928;-77
2022/06/18 00:40:54;;;;;;;;;;;;;;;;;;5067187;28;20037;-76
2022/06/18 00:43:20;;;;;;;;;;;;;;;;;;5081718;28;19932;-79
2022/06/18 00:45:47;;;;;;;;;;;;;;;;;;5063657;28;19924;-76
2022/06/18 00:48:13;;;;;;;;;;;;;;;;;;5063811;28;19924;-76
2022/06/18 00:50:39;;;;;;;;;;;;;;;;;;5048415;28;19978;-76
2022/06/18 00:53:05;;;;;;;;;;;;;;;;;;5081607;28;19924;-79
2022/06/18 00:55:30;;;;;;;;;;;;;;;;;;5067312;28;19956;-77
2022/06/18 00:57:56;;;;;;;;;;;;;;;;;;5061429;28;19928;-76
2022/06/18 01:00:22;;;;;;;;;;;;;;;;;;5071646;28;19935;-77
2022/06/18 01:02:48;;;;;;;;;;;;;;;;;;5096119;28;20063;-76
2022/06/18 01:05:14;;;;;;;;;;;;;;;;;;5064851;28;19979;-76
2022/06/18 01:07:40;;;;;;;;;;;;;;;;;;5061732;28;19923;-76
2022/06/18 01:10:06;;;;;;;;;;;;;;;;;;5060701;28;19924;-76
2022/06/18 01:12:32;;;;;;;;;;;;;;;;;;5081287;28;19928;-75
2022/06/18 01:15:00;;;;;;;;;;;;;;;;;;5092324;28;19954;-75
2022/06/18 01:17:26;;;;;;;;;;;;;;;;;;5078592;28;20366;-76
2022/06/18 01:19:52;;;;;;;;;;;;;;;;;;5078773;28;19928;-76
2022/06/18 01:22:18;;;;;;;;;;;;;;;;;;5078462;28;19973;-75
2022/06/18 01:24:44;;;;;;;;;;;;;;;;;;5082659;28;20391;-75
2022/06/18 01:27:10;;;;;;;;;;;;;;;;;;5093866;28;19959;-76
2022/06/18 01:29:36;;;;;;;;;;;;;;;;;;5082143;28;20362;-76
2022/06/18 01:32:02;;;;;;;;;;;;;;;;;;5074712;28;20014;-75
2022/06/18 01:34:28;;;;;;;;;;;;;;;;;;5078620;28;19934;-75
2022/06/18 01:36:54;;;;;;;;;;;;;;;;;;5063066;28;19927;-76
2022/06/18 01:39:20;;;;;;;;;;;;;;;;;;5079790;28;20286;-79
2022/06/18 01:41:52;;;;;;;;;;;;;;;;;;5073573;28;19928;-79
2022/06/18 01:44:18;;;;;;;;;;;;;;;;;;5076868;28;20443;-76
2022/06/18 01:46:44;;;;;;;;;;;;;;;;;;5059912;28;19927;-76
2022/06/18 01:49:10;;;;;;;;;;;;;;;;;;5077477;28;19924;-79
2022/06/18 01:51:36;;;;;;;;;;;;;;;;;;5077328;28;19980;-76
2022/06/18 01:54:02;;;;;;;;;;;;;;;;;;5073091;28;20234;-76
2022/06/18 01:56:28;;;;;;;;;;;;;;;;;;5097355;28;19931;-76
2022/06/18 01:58:54;;;;;;;;;;;;;;;;;;5082164;28;19931;-76
2022/06/18 02:01:20;;;;;;;;;;;;;;;;;;5079592;28;19923;-76
2022/06/18 02:03:45;;;;;;;;;;;;;;;;;;5078881;28;19967;-77
2022/06/18 02:06:11;;;;;;;;;;;;;;;;;;5096096;28;19931;-76
2022/06/18 02:08:37;;;;;;;;;;;;;;;;;;5063068;28;19928;-76
2022/06/18 02:11:03;;;;;;;;;;;;;;;;;;5078147;28;20374;-76
2022/06/18 02:13:29;;;;;;;;;;;;;;;;;;5075774;28;19928;-76
2022/06/18 02:15:55;;;;;;;;;;;;;;;;;;5063242;28;19924;-76
2022/06/18 02:18:21;;;;;;;;;;;;;;;;;;5076199;28;19924;-76
2022/06/18 02:20:47;;;;;;;;;;;;;;;;;;5080711;28;19962;-75
2022/06/18 02:23:13;;;;;;;;;;;;;;;;;;5096258;28;19931;-75
2022/06/18 02:25:39;;;;;;;;;;;;;;;;;;5077463;28;20018;-76
2022/06/18 02:28:05;;;;;;;;;;;;;;;;;;5080461;28;19924;-75
2022/06/18 02:30:31;;;;;;;;;;;;;;;;;;5096892;28;19924;-75
2022/06/18 02:32:57;;;;;;;;;;;;;;;;;;5101975;28;19951;-76
2022/06/18 02:35:23;;;;;;;;;;;;;;;;;;5098203;28;20017;-76
2022/06/18 02:37:49;;;;;;;;;;;;;;;;;;5076686;28;19924;-76
2022/06/18 02:40:15;;;;;;;;;;;;;;;;;;5079933;28;19939;-75
2022/06/18 02:42:41;;;;;;;;;;;;;;;;;;5076823;28;19927;-75
2022/06/18 02:45:07;;;;;;;;;;;;;;;;;;5059741;28;19981;-75
2022/06/18 02:47:33;;;;;;;;;;;;;;;;;;5079814;28;20399;-75
2022/06/18 02:49:59;;;;;;;;;;;;;;;;;;5099817;28;20378;-76
2022/06/18 02:52:25;;;;;;;;;;;;;;;;;;5084793;28;19924;-76
2022/06/18 02:54:51;;;;;;;;;;;;;;;;;;5082920;28;19924;-76
2022/06/18 02:57:17;;;;;;;;;;;;;;;;;;5079713;28;20065;-76
2022/06/18 02:59:43;;;;;;;;;;;;;;;;;;5063535;28;19924;-76
2022/06/18 03:02:09;;;;;;;;;;;;;;;;;;5064373;28;19924;-76
2022/06/18 03:04:34;;;;;;;;;;;;;;;;;;5083629;28;19931;-79
2022/06/18 03:07:00;;;;;;;;;;;;;;;;;;5065798;28;19935;-75
2022/06/18 03:09:26;;;;;;;;;;;;;;;;;;5060356;28;19924;-76
2022/06/18 03:12:08;;;;;;;;;;;;;;;;;;5083056;28;19943;-77
2022/06/18 03:14:34;;;;;;;;;;;;;;;;;;5083789;28;20351;-76
2022/06/18 03:17:00;;;;;;;;;;;;;;;;;;5083827;28;19927;-77
2022/06/18 03:19:26;;;;;;;;;;;;;;;;;;5081119;28;19930;-76
2022/06/18 03:21:52;;;;;;;;;;;;;;;;;;5081573;28;20386;-76
2022/06/18 03:24:18;;;;;;;;;;;;;;;;;;5079427;28;20023;-77
2022/06/18 03:26:44;;;;;;;;;;;;;;;;;;5079029;28;19974;-76
2022/06/18 03:29:10;;;;;;;;;;;;;;;;;;5078650;28;19928;-75
2022/06/18 03:31:36;;;;;;;;;;;;;;;;;;5100858;28;19928;-77
2022/06/18 03:34:02;;;;;;;;;;;;;;;;;;5080837;28;19924;-77
2022/06/18 03:36:28;;;;;;;;;;;;;;;;;;5098497;28;20023;-76
2022/06/18 03:38:54;;;;;;;;;;;;;;;;;;5083719;28;20728;-77
2022/06/18 03:41:20;;;;;;;;;;;;;;;;;;5097959;28;19946;-76
2022/06/18 03:43:46;;;;;;;;;;;;;;;;;;5064998;28;20623;-76
2022/06/18 03:46:12;;;;;;;;;;;;;;;;;;5078107;28;19924;-76
2022/06/18 03:48:38;;;;;;;;;;;;;;;;;;5076211;28;19950;-77
2022/06/18 03:51:04;;;;;;;;;;;;;;;;;;5080751;28;19947;-75
2022/06/18 03:53:30;;;;;;;;;;;;;;;;;;5079344;28;20297;-79
2022/06/18 03:55:56;;;;;;;;;;;;;;;;;;5080340;28;19985;-77
2022/06/18 03:58:22;;;;;;;;;;;;;;;;;;5064937;28;20314;-77
2022/06/18 04:00:48;;;;;;;;;;;;;;;;;;5074686;28;20062;-76
2022/06/18 04:03:14;;;;;;;;;;;;;;;;;;5097845;28;20334;-77
2022/06/18 04:05:40;;;;;;;;;;;;;;;;;;5079666;28;20340;-76
2022/06/18 04:08:06;;;;;;;;;;;;;;;;;;5081486;28;19931;-76
2022/06/18 04:10:32;;;;;;;;;;;;;;;;;;5082143;28;19974;-76
2022/06/18 04:12:58;;;;;;;;;;;;;;;;;;5063319;28;19928;-76
2022/06/18 04:15:24;;;;;;;;;;;;;;;;;;5077513;28;19927;-77
2022/06/18 04:17:50;;;;;;;;;;;;;;;;;;5099129;28;19930;-76
2022/06/18 04:20:16;;;;;;;;;;;;;;;;;;5082282;28;20031;-78
2022/06/18 04:22:42;;;;;;;;;;;;;;;;;;5083355;28;19928;-76
2022/06/18 04:25:07;;;;;;;;;;;;;;;;;;5099342;28;19954;-76
2022/06/18 04:27:33;;;;;;;;;;;;;;;;;;5078803;28;19935;-78
2022/06/18 04:29:59;;;;;;;;;;;;;;;;;;5074066;28;20027;-76
2022/06/18 04:32:25;;;;;;;;;;;;;;;;;;5077120;28;19924;-77
2022/06/18 04:34:51;;;;;;;;;;;;;;;;;;5075994;28;20047;-79
2022/06/18 04:37:17;;;;;;;;;;;;;;;;;;5080886;28;19951;-76
2022/06/18 04:39:43;;;;;;;;;;;;;;;;;;5094813;28;20334;-76
2022/06/18 04:42:09;;;;;;;;;;;;;;;;;;5077167;28;19924;-76
2022/06/18 04:44:35;;;;;;;;;;;;;;;;;;5076159;28;19924;-78
2022/06/18 04:47:01;;;;;;;;;;;;;;;;;;5099132;28;19932;-76
2022/06/18 04:49:27;;;;;;;;;;;;;;;;;;5079211;28;19924;-76
2022/06/18 04:51:53;;;;;;;;;;;;;;;;;;5077483;28;19981;-76
2022/06/18 04:54:19;;;;;;;;;;;;;;;;;;5097313;28;19924;-76
2022/06/18 04:56:45;;;;;;;;;;;;;;;;;;5078743;28;19928;-76
2022/06/18 04:59:11;;;;;;;;;;;;;;;;;;5081743;28;19927;-77
2022/06/18 05:01:37;;;;;;;;;;;;;;;;;;5080918;28;20136;-76
2022/06/18 05:04:03;;;;;;;;;;;;;;;;;;5079639;28;19928;-76
2022/06/18 05:06:29;;;;;;;;;;;;;;;;;;5077107;28;19927;-77
2022/06/18 05:08:55;;;;;;;;;;;;;;;;;;5095708;28;19932;-76
2022/06/18 05:11:21;;;;;;;;;;;;;;;;;;5080283;28;19974;-76
2022/06/18 05:13:47;;;;;;;;;;;;;;;;;;5093773;28;20367;-78
2022/06/18 05:16:13;;;;;;;;;;;;;;;;;;5079291;28;20362;-77
2022/06/18 05:18:39;;;;;;;;;;;;;;;;;;5081149;28;20283;-76
2022/06/18 05:21:05;;;;;;;;;;;;;;;;;;5094604;28;19924;-76
2022/06/18 05:23:31;;;;;;;;;;;;;;;;;;5079049;28;19924;-76
2022/06/18 05:25:57;;;;;;;;;;;;;;;;;;5093697;28;19931;-79
2022/06/18 05:28:23;;;;;;;;;;;;;;;;;;5071138;28;19924;-76
2022/06/18 05:30:49;;;;;;;;;;;;;;;;;;5077965;28;19935;-76
2022/06/18 05:33:15;;;;;;;;;;;;;;;;;;5076092;28;19928;-76
2022/06/18 05:35:41;;;;;;;;;;;;;;;;;;5093150;28;19932;-76
2022/06/18 05:38:07;;;;;;;;;;;;;;;;;;5075468;28;20378;-77
2022/06/18 05:40:33;;;;;;;;;;;;;;;;;;5079933;28;19924;-76
2022/06/18 05:42:59;;;;;;;;;;;;;;;;;;5075029;28;19932;-76
2022/06/18 05:45:25;;;;;;;;;;;;;;;;;;5065691;28;19924;-76
2022/06/18 05:47:51;;;;;;;;;;;;;;;;;;5075789;28;19935;-78
2022/06/18 05:50:17;;;;;;;;;;;;;;;;;;5078715;28;19976;-76
2022/06/18 05:52:43;;;;;;;;;;;;;;;;;;5077161;28;19923;-76
2022/06/18 05:55:09;;;;;;;;;;;;;;;;;;5080043;28;19924;-80
2022/06/18 05:57:35;;;;;;;;;;;;;;;;;;5082114;28;20116;-80
2022/06/18 06:00:00;;;;;;;;;;;;;;;;;;5093477;28;19931;-76
2022/06/18 06:02:26;;;;;;;;;;;;;;;;;;5061746;28;20051;-76
2022/06/18 06:04:52;;;;;;;;;;;;;;;;;;5057211;28;19924;-76
2022/06/18 06:07:20;;;;;;;;;;;;;;;;;;5079740;28;20276;-76
2022/06/18 06:12:31;;;;;;;;;;;;;;;;;;5077753;28;20409;-76
2022/06/18 06:14:57;;;;;;;;;;;;;;;;;;5073352;28;20021;-75
2022/06/18 06:17:23;;;;;;;;;;;;;;;;;;5063295;28;19923;-76
2022/06/18 06:19:49;;;;;;;;;;;;;;;;;;5087024;28;20275;-75
2022/06/18 06:22:14;;;;;;;;;;;;;;;;;;5095994;28;20010;-75
2022/06/18 06:24:41;;;;;;;;;;;;;;;;;;5072229;28;19926;-78
2022/06/18 06:27:07;;;;;;;;;;;;;;;;;;5078435;28;19988;-75
2022/06/18 06:29:33;;;;;;;;;;;;;;;;;;5098756;28;19924;-76
2022/06/18 06:31:59;;;;;;;;;;;;;;;;;;5076346;28;19977;-75
2022/06/18 06:34:25;;;;;;;;;;;;;;;;;;5095298;28;19954;-75
2022/06/18 06:36:51;;;;;;;;;;;;;;;;;;5100410;28;19923;-78
2022/06/18 06:39:17;;;;;;;;;;;;;;;;;;5073787;28;19963;-74
2022/06/18 06:41:43;;;;;;;;;;;;;;;;;;5094203;28;19928;-75
2022/06/18 06:44:09;;;;;;;;;;;;;;;;;;5061596;28;19932;-75
2022/06/18 06:46:35;;;;;;;;;;;;;;;;;;5078973;28;19924;-81
2022/06/18 06:49:01;;;;;;;;;;;;;;;;;;5075513;28;20033;-76
2022/06/18 06:51:26;;;;;;;;;;;;;;;;;;5080181;28;20006;-76
2022/06/18 06:53:52;;;;;;;;;;;;;;;;;;5075982;28;20058;-76
2022/06/18 06:59:03;;;;;;;;;;;;;;;;;;5080360;28;20359;-77
2022/06/18 07:01:29;;;;;;;;;;;;;;;;;;5081416;28;19939;-78
2022/06/18 07:03:55;;;;;;;;;;;;;;;;;;5076042;28;20403;-76
2022/06/18 07:06:21;;;;;;;;;;;;;;;;;;5074293;28;20015;-76
2022/06/18 07:08:47;;;;;;;;;;;;;;;;;;5080008;28;19931;-77
2022/06/18 07:11:13;;;;;;;;;;;;;;;;;;5076607;28;19931;-75
2022/06/18 07:13:39;;;;;;;;;;;;;;;;;;5074213;28;19928;-76
2022/06/18 07:16:04;;;;;;;;;;;;;;;;;;5057489;28;20021;-76
2022/06/18 07:18:31;;;;;;;;;;;;;;;;;;5076939;28;20287;-77
2022/06/18 07:20:57;;;;;;;;;;;;;;;;;;5086524;28;20348;-76
2022/06/18 07:23:23;;;;;;;;;;;;;;;;;;5081366;28;19924;-77
2022/06/18 07:25:49;;;;;;;;;;;;;;;;;;5073316;28;20390;-76
2022/06/18 07:28:15;;;;;;;;;;;;;;;;;;5076846;28;20298;-77
2022/06/18 07:30:41;;;;;;;;;;;;;;;;;;5066839;28;19927;-77
2022/06/18 07:33:07;;;;;;;;;;;;;;;;;;5079128;28;19932;-76
2022/06/18 07:35:34;;;;;;;;;;;;;;;;;;5073763;28;19951;-76
2022/06/18 07:38:00;;;;;;;;;;;;;;;;;;5077674;28;20126;-77
2022/06/18 07:40:26;;;;;;;;;;;;;;;;;;5080418;28;19924;-76
2022/06/18 07:42:52;;;;;;;;;;;;;;;;;;5080891;28;20332;-76
2022/06/18 07:45:18;;;;;;;;;;;;;;;;;;5095339;28;19928;-75
2022/06/18 07:47:45;;;;;;;;;;;;;;;;;;5104045;28;19960;-76
2022/06/18 07:50:11;;;;;;;;;;;;;;;;;;5079606;28;20328;-75
2022/06/18 07:52:37;;;;;;;;;;;;;;;;;;5097606;28;19924;-78
2022/06/18 07:55:03;;;;;;;;;;;;;;;;;;5094871;28;19924;-75
2022/06/18 07:57:29;;;;;;;;;;;;;;;;;;5076845;28;20573;-76
2022/06/18 07:59:56;;;;;;;;;;;;;;;;;;5066281;28;19924;-76
2022/06/18 08:02:22;;;;;;;;;;;;;;;;;;5058905;28;19924;-79
2022/06/18 08:04:48;;;;;;;;;;;;;;;;;;5102329;28;19928;-77
2022/06/18 08:07:14;;;;;;;;;;;;;;;;;;5073194;28;20017;-73
2022/06/18 08:09:40;;;;;;;;;;;;;;;;;;5094680;28;19924;-77
2022/06/18 08:12:06;;;;;;;;;;;;;;;;;;5080395;28;20028;-76
2022/06/18 08:14:32;;;;;;;;;;;;;;;;;;5105127;28;19928;-75
2022/06/18 08:16:58;;;;;;;;;;;;;;;;;;5097145;28;20037;-73
2022/06/18 08:19:27;;;;;;;;;;;;;;;;;;5101327;28;20046;-74
2022/06/18 08:21:53;;;;;;;;;;;;;;;;;;5101916;28;20387;-75
2022/06/18 08:24:19;;;;;;;;;;;;;;;;;;5082721;28;19924;-75
2022/06/18 08:26:45;;;;;;;;;;;;;;;;;;5102605;28;20296;-76
2022/06/18 08:29:10;;;;;;;;;;;;;;;;;;5100686;28;20266;-81
2022/06/18 08:31:36;;;;;;;;;;;;;;;;;;5078223;28;19959;-80
2022/06/18 08:34:02;;;;;;;;;;;;;;;;;;5080826;28;19932;-83
2022/06/18 08:36:28;;;;;;;;;;;;;;;;;;5081163;28;19939;-83
2022/06/18 08:38:54;;;;;;;;;;;;;;;;;;5068085;28;19928;-85
2022/06/18 08:41:20;;;;;;;;;;;;;;;;;;5066854;28;19924;-82
2022/06/18 08:43:46;;;;;;;;;;;;;;;;;;5059394;28;19998;-83
2022/06/18 08:46:13;;;;;;;;;;;;;;;;;;5064762;28;19924;-83
2022/06/18 08:48:39;;;;;;;;;;;;;;;;;;5073486;28;19977;-84
2022/06/18 08:51:05;;;;;;;;;;;;;;;;;;5076566;28;19936;-84
2022/06/18 08:53:31;;;;;;;;;;;;;;;;;;5069169;28;20015;-82
2022/06/18 08:55:57;;;;;;;;;;;;;;;;;;5067766;28;19928;-84
2022/06/18 08:58:24;;;;;;;;;;;;;;;;;;5077568;28;19927;-85
2022/06/18 09:00:50;;;;;;;;;;;;;;;;;;5054885;28;19924;-83
2022/06/18 09:03:17;;;;;;;;;;;;;;;;;;5076890;28;20007;-82
2022/06/18 09:05:44;;;;;;;;;;;;;;;;;;5062995;28;19984;-83
2022/06/18 09:08:10;;;;;;;;;;;;;;;;;;5064231;28;19928;-84
2022/06/18 09:10:36;;;;;;;;;;;;;;;;;;5075461;28;19924;-83
2022/06/18 09:13:02;;;;;;;;;;;;;;;;;;5064441;28;19931;-83
2022/06/18 09:15:28;;;;;;;;;;;;;;;;;;5083411;28;19934;-86
2022/06/18 09:17:54;;;;;;;;;;;;;;;;;;5065886;27;19993;-84
2022/06/18 09:20:20;;;;;;;;;;;;;;;;;;5083233;28;19930;-83
2022/06/18 09:22:46;;;;;;;;;;;;;;;;;;5082011;28;19931;-83
2022/06/18 09:25:12;;;;;;;;;;;;;;;;;;5062805;28;20023;-88
2022/06/18 09:27:38;;;;;;;;;;;;;;;;;;5052899;28;19979;-82
2022/06/18 09:30:06;;;;;;;;;;;;;;;;;;5064109;28;19932;-83
2022/06/18 09:32:32;;;;;;;;;;;;;;;;;;5058282;28;19924;-86
2022/06/18 09:34:58;;;;;;;;;;;;;;;;;;5075094;28;20007;-83
2022/06/18 09:37:24;;;;;;;;;;;;;;;;;;5059602;28;19931;-84
2022/06/18 09:39:49;;;;;;;;;;;;;;;;;;5077758;28;19927;-82
2022/06/18 09:42:15;;;;;;;;;;;;;;;;;;5066199;28;19932;-86
2022/06/18 09:44:41;;;;;;;;;;;;;;;;;;5069272;28;20024;-78
2022/06/18 09:47:07;;;;;;;;;;;;;;;;;;5078366;28;19931;-77
2022/06/18 09:49:33;;;;;;;;;;;;;;;;;;5076020;28;19931;-83
2022/06/18 09:54:25;;;;;;;;;;;;;;;;;;5073675;28;19928;-83
2022/06/18 09:56:51;;;;;;;;;;;;;;;;;;5078038;28;19923;-85
2022/06/18 09:59:17;;;;;;;;;;;;;;;;;;5060427;28;19931;-81
2022/06/18 10:01:43;;;;;;;;;;;;;;;;;;5074612;28;20010;-83
2022/06/18 10:06:57;;;;;;;;;;;;;;;;;;5086438;28;20374;-83
2022/06/18 10:09:23;;;;;;;;;;;;;;;;;;5076086;28;19924;-83
2022/06/18 10:11:49;;;;;;;;;;;;;;;;;;5058228;28;20567;-82
2022/06/18 10:14:15;;;;;;;;;;;;;;;;;;5085859;28;19928;-83
2022/06/18 10:16:41;;;;;;;;;;;;;;;;;;5074167;28;19969;-83
2022/06/18 10:19:07;;;;;;;;;;;;;;;;;;5058192;28;19924;-84
2022/06/18 10:21:33;;;;;;;;;;;;;;;;;;5075554;28;19924;-80
2022/06/18 10:23:59;;;;;;;;;;;;;;;;;;5068661;28;19924;-86
2022/06/18 10:26:25;;;;;;;;;;;;;;;;;;5061897;28;19963;-83
2022/06/18 10:28:51;;;;;;;;;;;;;;;;;;5075522;28;19932;-82
2022/06/18 10:31:17;;;;;;;;;;;;;;;;;;5085257;28;19928;-81
2022/06/18 10:33:43;;;;;;;;;;;;;;;;;;5084397;28;20018;-82
2022/06/18 10:36:09;;;;;;;;;;;;;;;;;;5059885;28;19929;-87
2022/06/18 10:38:35;;;;;;;;;;;;;;;;;;5058908;28;19931;-82
2022/06/18 10:41:00;;;;;;;;;;;;;;;;;;5055682;28;20394;-86
2022/06/18 10:43:28;;;;;;;;;;;;;;;;;;5069647;28;19930;-86
2022/06/18 10:45:54;;;;;;;;;;;;;;;;;;5079061;28;19975;-82
2022/06/18 10:48:20;;;;;;;;;;;;;;;;;;5087365;28;19978;-83
2022/06/18 10:50:46;;;;;;;;;;;;;;;;;;5062772;28;19928;-83
2022/06/18 10:53:13;;;;;;;;;;;;;;;;;;5084353;28;19924;-82
2022/06/18 10:55:39;;;;;;;;;;;;;;;;;;5072320;28;20219;-84
2022/06/18 10:58:05;;;;;;;;;;;;;;;;;;5074486;28;20379;-83
2022/06/18 11:00:31;;;;;;;;;;;;;;;;;;5072521;28;20367;-83
2022/06/18 11:02:57;;;;;;;;;;;;;;;;;;5079780;28;20286;-83
2022/06/18 11:05:23;;;;;;;;;;;;;;;;;;5062374;28;19942;-83
2022/06/18 11:07:49;;;;;;;;;;;;;;;;;;5081143;28;20396;-80
2022/06/18 11:10:15;;;;;;;;;;;;;;;;;;5060744;28;19967;-81
2022/06/18 11:12:41;;;;;;;;;;;;;;;;;;5102283;28;19975;-83
2022/06/18 11:15:07;;;;;;;;;;;;;;;;;;5080515;28;20278;-84
2022/06/18 11:17:33;;;;;;;;;;;;;;;;;;5075541;28;19932;-82
2022/06/18 11:19:59;;;;;;;;;;;;;;;;;;5073428;28;20026;-83
2022/06/18 11:22:25;;;;;;;;;;;;;;;;;;5082872;28;19931;-82
2022/06/18 11:24:51;;;;;;;;;;;;;;;;;;5082534;28;19935;-81
2022/06/18 11:27:17;;;;;;;;;;;;;;;;;;5095203;28;19978;-82
2022/06/18 11:29:43;;;;;;;;;;;;;;;;;;5070356;28;19985;-83
2022/06/18 11:32:09;;;;;;;;;;;;;;;;;;5065321;28;19931;-74
2022/06/18 11:34:35;;;;;;;;;;;;;;;;;;5103893;28;19923;-77
2022/06/18 11:37:01;;;;;;;;;;;;;;;;;;5095600;28;19971;-79
2022/06/18 11:39:27;;;;;;;;;;;;;;;;;;5082331;28;20386;-80
2022/06/18 11:41:53;;;;;;;;;;;;;;;;;;5079460;28;19924;-79
2022/06/18 11:44:19;;;;;;;;;;;;;;;;;;5061134;28;19938;-78
2022/06/18 11:46:45;;;;;;;;;;;;;;;;;;5081691;28;19924;-79
2022/06/18 11:49:11;;;;;;;;;;;;;;;;;;5077231;28;19963;-79
2022/06/18 11:51:37;;;;;;;;;;;;;;;;;;5077219;28;20010;-78
2022/06/18 11:54:03;;;;;;;;;;;;;;;;;;5060191;28;20007;-79
2022/06/18 11:56:29;;;;;;;;;;;;;;;;;;5079237;28;20011;-81
2022/06/18 11:58:56;;;;;;;;;;;;;;;;;;5088025;28;20081;-80
2022/06/18 12:01:22;;;;;;;;;;;;;;;;;;5094250;28;19928;-79
2022/06/18 12:03:48;;;;;;;;;;;;;;;;;;5089504;28;20397;-78
2022/06/18 12:06:14;;;;;;;;;;;;;;;;;;5114953;28;19979;-79
2022/06/18 12:08:40;;;;;;;;;;;;;;;;;;5076279;28;19923;-80
2022/06/18 12:11:09;;;;;;;;;;;;;;;;;;5069379;28;20007;-80
2022/06/18 12:13:35;;;;;;;;;;;;;;;;;;5076675;28;19924;-79
2022/06/18 12:16:01;;;;;;;;;;;;;;;;;;5076562;28;19924;-79
2022/06/18 12:18:27;;;;;;;;;;;;;;;;;;5095912;28;19928;-79
2022/06/18 12:20:53;;;;;;;;;;;;;;;;;;5076735;28;19973;-79
2022/06/18 12:23:19;;;;;;;;;;;;;;;;;;5093396;28;20026;-79
2022/06/18 12:25:45;;;;;;;;;;;;;;;;;;5087045;28;19924;-78
2022/06/18 12:28:11;;;;;;;;;;;;;;;;;;5080665;28;20370;-78
2022/06/18 12:30:37;;;;;;;;;;;;;;;;;;5084126;28;19924;-79
2022/06/18 12:33:04;;;;;;;;;;;;;;;;;;5075281;28;20299;-78
2022/06/18 12:35:30;;;;;;;;;;;;;;;;;;5109741;28;19924;-79
2022/06/18 12:37:56;;;;;;;;;;;;;;;;;;5080456;28;19931;-79
2022/06/18 12:40:22;;;;;;;;;;;;;;;;;;5093504;28;19931;-79
2022/06/18 12:42:48;;;;;;;;;;;;;;;;;;5084607;28;19935;-79
2022/06/18 12:45:14;;;;;;;;;;;;;;;;;;5076571;28;20355;-79
2022/06/18 12:47:40;;;;;;;;;;;;;;;;;;5094227;28;19984;-78
2022/06/18 12:50:06;;;;;;;;;;;;;;;;;;5094356;28;19969;-79
2022/06/18 12:52:32;;;;;;;;;;;;;;;;;;5075879;28;20015;-79
2022/06/18 12:54:58;;;;;;;;;;;;;;;;;;5075320;28;19928;-79
2022/06/18 12:57:24;;;;;;;;;;;;;;;;;;5075853;28;20024;-80
2022/06/18 12:59:50;;;;;;;;;;;;;;;;;;5095740;28;19931;-80
2022/06/18 13:02:16;;;;;;;;;;;;;;;;;;5094306;28;19924;-79
2022/06/18 13:04:42;;;;;;;;;;;;;;;;;;5076181;28;20432;-79
2022/06/18 13:07:08;;;;;;;;;;;;;;;;;;5099205;28;19935;-79
2022/06/18 13:09:34;;;;;;;;;;;;;;;;;;5093080;28;20002;-79
2022/06/18 13:12:00;;;;;;;;;;;;;;;;;;5081577;28;19924;-79
2022/06/18 13:14:26;;;;;;;;;;;;;;;;;;5075609;28;19924;-79
2022/06/18 13:16:54;;;;;;;;;;;;;;;;;;5093096;28;19924;-78
2022/06/18 13:19:20;;;;;;;;;;;;;;;;;;5076426;28;20299;-78
2022/06/18 13:21:46;;;;;;;;;;;;;;;;;;5074951;28;19924;-77
2022/06/18 13:29:41;;;;;;;;;;;;;;;;;;5075649;28;20341;-78
2022/06/18 13:32:07;;;;;;;;;;;;;;;;;;5075671;28;19924;-78
2022/06/18 13:34:33;;;;;;;;;;;;;;;;;;5074846;28;19936;-78
2022/06/18 13:36:59;;;;;;;;;;;;;;;;;;5073938;28;19971;-78
2022/06/18 13:39:24;;;;;;;;;;;;;;;;;;5087401;28;19977;-79
2022/06/18 13:41:50;;;;;;;;;;;;;;;;;;5097897;28;19924;-77
2022/06/18 13:44:16;;;;;;;;;;;;;;;;;;5075711;28;19978;-77
2022/06/18 13:46:42;;;;;;;;;;;;;;;;;;5067797;28;19959;-78
2022/06/18 13:49:08;;;;;;;;;;;;;;;;;;5101289;28;19935;-78
2022/06/18 13:51:34;;;;;;;;;;;;;;;;;;5074838;28;20428;-78
2022/06/18 13:54:00;;;;;;;;;;;;;;;;;;5074628;28;19929;-79
2022/06/18 13:56:26;;;;;;;;;;;;;;;;;;5081921;28;19981;-80
2022/06/18 13:58:52;;;;;;;;;;;;;;;;;;5080524;28;19936;-79
2022/06/18 14:01:18;;;;;;;;;;;;;;;;;;5074170;28;19935;-79
2022/06/18 14:03:44;;;;;;;;;;;;;;;;;;5074911;28;19928;-79
2022/06/18 14:06:10;;;;;;;;;;;;;;;;;;5074505;28;20289;-79
2022/06/18 14:08:36;;;;;;;;;;;;;;;;;;5104732;28;19924;-79
2022/06/18 14:11:02;;;;;;;;;;;;;;;;;;5075729;28;19924;-79
2022/06/18 14:13:28;;;;;;;;;;;;;;;;;;5085653;28;20379;-79
2022/06/18 14:15:54;;;;;;;;;;;;;;;;;;5072905;28;20397;-79
2022/06/18 14:18:20;;;;;;;;;;;;;;;;;;5077962;28;19924;-78
2022/06/18 14:20:46;;;;;;;;;;;;;;;;;;5077642;28;19931;-78
2022/06/18 14:23:13;;;;;;;;;;;;;;;;;;5074541;28;19931;-78
2022/06/18 14:25:38;;;;;;;;;;;;;;;;;;5093713;28;19928;-79
2022/06/18 14:28:04;;;;;;;;;;;;;;;;;;5091452;28;20635;-79
2022/06/18 14:30:31;;;;;;;;;;;;;;;;;;5104960;28;20375;-79
2022/06/18 14:32:59;;;;;;;;;;;;;;;;;;5087227;28;19931;-79
2022/06/18 14:35:25;;;;;;;;;;;;;;;;;;5063311;28;19924;-79
2022/06/18 14:37:51;;;;;;;;;;;;;;;;;;5074688;28;19924;-78
2022/06/18 14:40:16;;;;;;;;;;;;;;;;;;5083242;28;19932;-78
2022/06/18 14:42:43;;;;;;;;;;;;;;;;;;5094527;28;20017;-79
2022/06/18 14:45:09;;;;;;;;;;;;;;;;;;5085145;28;19978;-78
2022/06/18 14:47:34;;;;;;;;;;;;;;;;;;5079165;28;20322;-78
2022/06/18 14:50:00;;;;;;;;;;;;;;;;;;5076535;28;19931;-78
2022/06/18 14:52:26;;;;;;;;;;;;;;;;;;5084671;28;19969;-78
2022/06/18 14:54:52;;;;;;;;;;;;;;;;;;5113770;28;19932;-78
2022/06/18 14:57:18;;;;;;;;;;;;;;;;;;5097467;28;19967;-78
2022/06/18 14:59:44;;;;;;;;;;;;;;;;;;5079251;28;19963;-78
2022/06/18 15:02:10;;;;;;;;;;;;;;;;;;5077218;28;19967;-78
2022/06/18 15:04:36;;;;;;;;;;;;;;;;;;5078339;28;20283;-78
2022/06/18 15:07:02;;;;;;;;;;;;;;;;;;5080664;28;19924;-79
2022/06/18 15:09:28;;;;;;;;;;;;;;;;;;5087147;28;19928;-78
2022/06/18 15:11:54;;;;;;;;;;;;;;;;;;5096482;28;20430;-77
2022/06/18 15:14:21;;;;;;;;;;;;;;;;;;5100991;28;20374;-78
2022/06/18 15:17:04;;;;;;;;;;;;;;;;;;5093882;28;20045;-77
2022/06/18 15:19:35;;;;;;;;;;;;;;;;;;5080517;28;19947;-79
2022/06/18 15:22:04;;;;;;;;;;;;;;;;;;5077649;28;19924;-78
2022/06/18 15:27:15;;;;;;;;;;;;;;;;;;5077814;28;19931;-77
2022/06/18 15:29:41;;;;;;;;;;;;;;;;;;5077180;28;19927;-78
2022/06/18 15:32:07;;;;;;;;;;;;;;;;;;5095603;28;19930;-78
2022/06/18 15:34:33;;;;;;;;;;;;;;;;;;5085752;28;19923;-78
2022/06/18 15:36:59;;;;;;;;;;;;;;;;;;5090356;28;19935;-77
2022/06/18 15:39:24;;;;;;;;;;;;;;;;;;5080924;28;20366;-78
2022/06/18 15:41:50;;;;;;;;;;;;;;;;;;5088836;28;19923;-77
2022/06/18 15:44:17;;;;;;;;;;;;;;;;;;5077170;28;20366;-78
2022/06/18 15:46:43;;;;;;;;;;;;;;;;;;5080391;28;19924;-80
2022/06/18 15:49:08;;;;;;;;;;;;;;;;;;5095221;28;21548;-77
2022/06/18 15:51:34;;;;;;;;;;;;;;;;;;5081787;28;21639;-81
2022/06/18 15:54:00;;;;;;;;;;;;;;;;;;5077400;28;19944;-83
2022/06/18 15:56:26;;;;;;;;;;;;;;;;;;5060172;28;19932;-81
2022/06/18 15:58:52;;;;;;;;;;;;;;;;;;5080831;28;19975;-84
2022/06/18 16:01:18;;;;;;;;;;;;;;;;;;5077569;28;19931;-77
2022/06/18 16:03:45;;;;;;;;;;;;;;;;;;5103136;28;19971;-84
2022/06/18 16:06:11;;;;;;;;;;;;;;;;;;5066507;28;20426;-83
2022/06/18 16:08:37;;;;;;;;;;;;;;;;;;5082475;28;20006;-84
2022/06/18 16:11:03;;;;;;;;;;;;;;;;;;5075960;28;19923;-81
2022/06/18 16:13:30;;;;;;;;;;;;;;;;;;5079371;28;20010;-84
2022/06/18 16:15:56;;;;;;;;;;;;;;;;;;5094482;28;19924;-80
2022/06/18 16:18:22;;;;;;;;;;;;;;;;;;5093598;28;20381;-80
2022/06/18 16:20:48;;;;;;;;;;;;;;;;;;5085028;28;19931;-78
2022/06/18 16:23:14;;;;;;;;;;;;;;;;;;5101568;28;19924;-82
2022/06/18 16:25:39;;;;;;;;;;;;;;;;;;5060690;28;19924;-77
2022/06/18 16:28:06;;;;;;;;;;;;;;;;;;5098259;28;19978;-77
2022/06/18 16:30:32;;;;;;;;;;;;;;;;;;5071292;28;19939;-79
2022/06/18 16:32:58;;;;;;;;;;;;;;;;;;5077725;28;20036;-76
2022/06/18 16:35:24;;;;;;;;;;;;;;;;;;5088770;27;19927;-80
2022/06/18 16:37:51;;;;;;;;;;;;;;;;;;5076393;28;19924;-76
2022/06/18 16:40:17;;;;;;;;;;;;;;;;;;5093680;28;20428;-83
2022/06/18 16:42:45;;;;;;;;;;;;;;;;;;5097063;28;20022;-76
2022/06/18 16:45:11;;;;;;;;;;;;;;;;;;5099313;28;19924;-78
2022/06/18 16:47:37;;;;;;;;;;;;;;;;;;5099035;28;20036;-74
2022/06/18 16:50:02;;;;;;;;;;;;;;;;;;5095518;28;19977;-77
2022/06/18 16:52:31;;;;;;;;;;;;;;;;;;5100056;28;20047;-90
2022/06/18 16:54:56;;;;;;;;;;;;;;;;;;5067255;28;19959;-78
2022/06/18 16:57:23;;;;;;;;;;;;;;;;;;5093005;28;19974;-78
2022/06/18 16:59:49;;;;;;;;;;;;;;;;;;5093298;28;19931;-82